createdAt,value
2023-05-12T00:00:44.644Z,25.00
2023-05-12T00:01:44.662Z,24.99
2023-05-12T00:02:44.782Z,24.97
2023-05-12T00:03:44.867Z,25.00
2023-05-12T00:04:44.688Z,24.97
2023-05-12T00:05:44.661Z,24.99
2023-05-12T00:06:44.651Z,24.99
2023-05-12T00:07:44.646Z,25.00
2023-05-12T00:08:44.624Z,24.97
2023-05-12T00:09:44.654Z,24.97
2023-05-12T00:10:44.739Z,24.97
2023-05-12T00:11:44.637Z,24.97
2023-05-12T00:12:44.628Z,24.96
2023-05-12T00:13:44.669Z,24.97
2023-05-12T00:14:44.651Z,24.99
2023-05-12T00:15:44.663Z,24.99
2023-05-12T00:16:44.726Z,24.97
2023-05-12T00:17:44.688Z,24.99
2023-05-12T00:18:44.682Z,25.00
2023-05-12T00:19:44.640Z,25.00
2023-05-12T00:20:44.641Z,24.97
2023-05-12T00:21:44.641Z,24.99
2023-05-12T00:22:44.636Z,24.99
2023-05-12T00:23:44.646Z,24.97
2023-05-12T00:24:44.652Z,24.96
2023-05-12T00:25:44.660Z,24.97
2023-05-12T00:26:44.661Z,24.97
2023-05-12T00:27:44.675Z,24.97
2023-05-12T00:28:44.675Z,24.99
2023-05-12T00:29:44.687Z,24.99
2023-05-12T00:30:44.699Z,24.97
2023-05-12T00:31:44.705Z,24.96
2023-05-12T00:32:44.768Z,24.97
2023-05-12T00:33:44.713Z,24.94
2023-05-12T00:34:44.734Z,24.97
2023-05-12T00:35:44.972Z,24.96
2023-05-12T00:36:44.739Z,24.96
2023-05-12T00:37:44.748Z,24.96
2023-05-12T00:38:44.732Z,24.96
2023-05-12T00:39:44.714Z,24.94
2023-05-12T00:40:44.724Z,24.97
2023-05-12T00:41:44.719Z,24.94
2023-05-12T00:42:44.765Z,24.96
2023-05-12T00:43:44.721Z,24.96
2023-05-12T00:44:44.708Z,24.94
2023-05-12T00:45:44.751Z,24.96
2023-05-12T00:46:44.692Z,24.96
2023-05-12T00:47:44.758Z,24.93
2023-05-12T00:48:44.682Z,24.96
2023-05-12T00:49:44.677Z,24.94
2023-05-12T00:50:44.674Z,24.97
2023-05-12T00:51:44.680Z,24.94
2023-05-12T00:52:44.672Z,24.94
2023-05-12T00:53:49.770Z,24.94
2023-05-12T00:54:45.642Z,24.93
2023-05-12T00:55:44.613Z,24.96
2023-05-12T00:56:44.574Z,24.94
2023-05-12T00:57:44.531Z,24.96
2023-05-12T00:58:44.503Z,24.92
2023-05-12T00:59:44.459Z,24.93
2023-05-12T01:00:44.434Z,24.92
2023-05-12T01:01:44.422Z,24.93
2023-05-12T01:02:44.431Z,24.93
2023-05-12T01:03:44.344Z,24.93
2023-05-12T01:04:44.299Z,24.92
2023-05-12T01:05:44.249Z,24.92
2023-05-12T01:06:44.217Z,24.93
2023-05-12T01:07:44.173Z,24.94
2023-05-12T01:08:44.188Z,24.92
2023-05-12T01:09:44.165Z,24.92
2023-05-12T01:10:44.168Z,24.94
2023-05-12T01:11:44.136Z,24.93
2023-05-12T01:12:44.152Z,24.90
2023-05-12T01:13:44.149Z,24.93
2023-05-12T01:14:44.166Z,24.90
2023-05-12T01:15:44.124Z,24.90
2023-05-12T01:16:44.147Z,24.93
2023-05-12T01:17:44.193Z,24.92
2023-05-12T01:18:44.234Z,24.93
2023-05-12T01:19:44.098Z,24.93
2023-05-12T01:20:44.108Z,24.92
2023-05-12T01:21:44.095Z,24.93
2023-05-12T01:22:44.097Z,24.92
2023-05-12T01:23:44.092Z,24.90
2023-05-12T01:24:44.113Z,24.92
2023-05-12T01:25:44.102Z,24.90
2023-05-12T01:26:44.103Z,24.90
2023-05-12T01:27:44.105Z,24.93
2023-05-12T01:28:44.102Z,24.92
2023-05-12T01:29:44.094Z,24.90
2023-05-12T01:30:44.174Z,24.90
2023-05-12T01:31:44.141Z,24.92
2023-05-12T01:32:44.115Z,24.90
2023-05-12T01:33:44.085Z,24.90
2023-05-12T01:34:44.087Z,24.90
2023-05-12T01:35:44.096Z,24.90
2023-05-12T01:36:44.099Z,24.92
2023-05-12T01:37:44.101Z,24.90
2023-05-12T01:38:44.084Z,24.92
2023-05-12T01:39:44.124Z,24.90
2023-05-12T01:40:44.075Z,24.90
2023-05-12T01:41:44.086Z,24.90
2023-05-12T01:42:44.097Z,24.90
2023-05-12T01:43:44.090Z,24.89
2023-05-12T01:44:44.069Z,24.90
2023-05-12T01:45:44.067Z,24.92
2023-05-12T01:46:44.094Z,24.90
2023-05-12T01:47:44.151Z,24.86
2023-05-12T01:48:44.088Z,24.89
2023-05-12T01:49:44.087Z,24.87
2023-05-12T01:50:44.053Z,24.87
2023-05-12T01:51:44.068Z,24.86
2023-05-12T01:52:44.047Z,24.87
2023-05-12T01:53:44.053Z,24.87
2023-05-12T01:54:44.051Z,24.87
2023-05-12T01:55:44.053Z,24.87
2023-05-12T01:56:44.038Z,24.87
2023-05-12T01:57:44.058Z,24.86
2023-05-12T01:58:44.102Z,24.89
2023-05-12T01:59:44.093Z,24.89
2023-05-12T02:00:44.069Z,24.89
2023-05-12T02:01:44.135Z,24.90
2023-05-12T02:02:44.159Z,24.87
2023-05-12T02:03:44.221Z,24.89
2023-05-12T02:04:44.062Z,24.89
2023-05-12T02:05:44.072Z,24.89
2023-05-12T02:06:44.062Z,24.87
2023-05-12T02:07:44.063Z,24.86
2023-05-12T02:08:44.074Z,24.89
2023-05-12T02:09:44.083Z,24.86
2023-05-12T02:10:44.058Z,24.86
2023-05-12T02:11:44.122Z,24.89
2023-05-12T02:12:44.057Z,24.86
2023-05-12T02:13:44.048Z,24.86
2023-05-12T02:14:44.061Z,24.86
2023-05-12T02:15:44.049Z,24.85
2023-05-12T02:16:44.248Z,24.87
2023-05-12T02:17:44.107Z,24.86
2023-05-12T02:18:44.192Z,24.83
2023-05-12T02:19:44.053Z,24.87
2023-05-12T02:20:44.073Z,24.86
2023-05-12T02:21:44.056Z,24.86
2023-05-12T02:22:44.060Z,24.87
2023-05-12T02:23:44.043Z,24.83
2023-05-12T02:24:44.051Z,24.85
2023-05-12T02:25:44.058Z,24.86
2023-05-12T02:26:44.068Z,24.86
2023-05-12T02:27:44.068Z,24.87
2023-05-12T02:28:44.071Z,24.83
2023-05-12T02:29:44.070Z,24.83
2023-05-12T02:30:44.064Z,24.87
2023-05-12T02:31:44.125Z,24.86
2023-05-12T02:32:44.113Z,24.85
2023-05-12T02:33:44.146Z,24.85
2023-05-12T02:34:44.080Z,24.83
2023-05-12T02:35:44.092Z,24.83
2023-05-12T02:36:44.100Z,24.85
2023-05-12T02:37:44.096Z,24.82
2023-05-12T02:38:44.107Z,24.85
2023-05-12T02:39:44.105Z,24.86
2023-05-12T02:40:44.113Z,24.83
2023-05-12T02:41:44.122Z,24.85
2023-05-12T02:42:44.132Z,24.86
2023-05-12T02:43:44.167Z,24.85
2023-05-12T02:44:44.146Z,24.86
2023-05-12T02:45:44.265Z,24.83
2023-05-12T02:46:44.150Z,24.85
2023-05-12T02:47:44.203Z,24.83
2023-05-12T02:48:44.168Z,24.82
2023-05-12T02:49:44.151Z,24.86
2023-05-12T02:50:44.177Z,24.87
2023-05-12T02:51:44.173Z,24.85
2023-05-12T02:52:44.177Z,24.86
2023-05-12T02:53:44.182Z,24.86
2023-05-12T02:54:44.172Z,24.83
2023-05-12T02:55:44.173Z,24.83
2023-05-12T02:56:44.191Z,24.83
2023-05-12T02:57:44.190Z,24.83
2023-05-12T02:58:44.217Z,24.82
2023-05-12T02:59:44.207Z,24.85
2023-05-12T03:00:44.202Z,24.82
2023-05-12T03:01:44.220Z,24.85
2023-05-12T03:02:44.285Z,24.83
2023-05-12T03:03:44.470Z,24.82
2023-05-12T03:04:44.229Z,24.83
2023-05-12T03:05:44.217Z,24.82
2023-05-12T03:06:44.270Z,24.81
2023-05-12T03:07:44.222Z,24.82
2023-05-12T03:08:44.240Z,24.82
2023-05-12T03:09:44.226Z,24.82
2023-05-12T03:10:44.240Z,24.82
2023-05-12T03:11:44.238Z,24.83
2023-05-12T03:12:44.238Z,24.83
2023-05-12T03:13:44.238Z,24.81
2023-05-12T03:14:44.244Z,24.81
2023-05-12T03:15:44.223Z,24.81
2023-05-12T03:16:44.261Z,24.85
2023-05-12T03:17:44.263Z,24.82
2023-05-12T03:18:44.292Z,24.83
2023-05-12T03:19:44.245Z,24.82
2023-05-12T03:20:44.240Z,24.81
2023-05-12T03:21:44.248Z,24.81
2023-05-12T03:22:44.251Z,24.79
2023-05-12T03:23:44.263Z,24.79
2023-05-12T03:24:44.268Z,24.79
2023-05-12T03:25:44.266Z,24.82
2023-05-12T03:26:44.294Z,24.82
2023-05-12T03:27:44.296Z,24.81
2023-05-12T03:28:44.295Z,24.79
2023-05-12T03:29:44.308Z,24.79
2023-05-12T03:30:44.300Z,24.81
2023-05-12T03:31:44.383Z,24.81
2023-05-12T03:32:44.324Z,24.79
2023-05-12T03:33:44.323Z,24.79
2023-05-12T03:34:44.333Z,24.81
2023-05-12T03:35:44.355Z,24.81
2023-05-12T03:36:44.338Z,24.81
2023-05-12T03:37:44.377Z,24.78
2023-05-12T03:38:44.344Z,24.78
2023-05-12T03:39:44.385Z,24.79
2023-05-12T03:40:44.367Z,24.81
2023-05-12T03:41:44.393Z,24.79
2023-05-12T03:42:44.381Z,24.81
2023-05-12T03:43:44.409Z,24.79
2023-05-12T03:44:44.404Z,24.81
2023-05-12T03:45:44.429Z,24.78
2023-05-12T03:46:44.518Z,24.79
2023-05-12T03:47:44.557Z,24.79
2023-05-12T03:48:44.421Z,24.81
2023-05-12T03:49:44.447Z,24.79
2023-05-12T03:50:44.445Z,24.76
2023-05-12T03:51:44.462Z,24.78
2023-05-12T03:52:45.107Z,24.79
2023-05-12T03:53:44.475Z,24.78
2023-05-12T03:54:44.501Z,24.79
2023-05-12T03:55:44.486Z,24.79
2023-05-12T03:56:44.497Z,24.79
2023-05-12T03:57:44.504Z,24.79
2023-05-12T03:58:44.510Z,24.78
2023-05-12T03:59:44.521Z,24.78
2023-05-12T04:00:44.525Z,24.78
2023-05-12T04:01:44.577Z,24.78
2023-05-12T04:02:44.677Z,24.76
2023-05-12T04:03:44.614Z,24.81
2023-05-12T04:04:44.585Z,24.79
2023-05-12T04:05:44.591Z,24.78
2023-05-12T04:06:44.603Z,24.76
2023-05-12T04:07:44.612Z,24.78
2023-05-12T04:08:44.620Z,24.76
2023-05-12T04:09:44.604Z,24.78
2023-05-12T04:10:44.627Z,24.76
2023-05-12T04:11:44.627Z,24.76
2023-05-12T04:12:44.653Z,24.79
2023-05-12T04:13:44.652Z,24.78
2023-05-12T04:14:44.672Z,24.76
2023-05-12T04:15:44.682Z,24.75
2023-05-12T04:16:44.726Z,24.76
2023-05-12T04:17:44.722Z,24.76
2023-05-12T04:18:44.697Z,24.75
2023-05-12T04:19:44.692Z,24.76
2023-05-12T04:20:44.700Z,24.75
2023-05-12T04:21:44.710Z,24.76
2023-05-12T04:22:44.707Z,24.78
2023-05-12T04:23:44.712Z,24.78
2023-05-12T04:24:44.721Z,24.78
2023-05-12T04:25:44.735Z,24.76
2023-05-12T04:26:44.744Z,24.78
2023-05-12T04:27:44.770Z,24.75
2023-05-12T04:28:44.852Z,24.73
2023-05-12T04:29:44.818Z,24.78
2023-05-12T04:30:44.811Z,24.76
2023-05-12T04:31:44.874Z,24.78
2023-05-12T04:32:44.912Z,24.78
2023-05-12T04:33:46.920Z,24.78
2023-05-12T04:34:44.831Z,24.75
2023-05-12T04:35:44.806Z,24.78
2023-05-12T04:36:44.768Z,24.78
2023-05-12T04:37:44.745Z,24.78
2023-05-12T04:38:44.713Z,24.75
2023-05-12T04:39:44.686Z,24.78
2023-05-12T04:40:44.645Z,24.75
2023-05-12T04:41:44.614Z,24.78
2023-05-12T04:42:44.614Z,24.78
2023-05-12T04:44:44.535Z,24.78
2023-05-12T04:45:44.525Z,24.79
2023-05-12T04:46:44.496Z,24.78
2023-05-12T04:47:44.492Z,24.78
2023-05-12T04:48:44.415Z,24.78
2023-05-12T04:49:44.384Z,24.78
2023-05-12T04:50:44.360Z,24.78
2023-05-12T04:51:44.325Z,24.78
2023-05-12T04:52:44.296Z,24.76
2023-05-12T04:53:44.263Z,24.79
2023-05-12T04:54:44.251Z,24.78
2023-05-12T04:55:44.198Z,24.78
2023-05-12T04:56:44.179Z,24.79
2023-05-12T04:57:44.152Z,24.76
2023-05-12T04:58:44.097Z,24.78
2023-05-12T04:59:44.059Z,24.79
2023-05-12T05:00:44.042Z,24.78
2023-05-12T05:01:44.193Z,24.78
2023-05-12T05:02:44.009Z,24.78
2023-05-12T05:03:44.128Z,24.78
2023-05-12T05:04:43.882Z,24.79
2023-05-12T05:05:43.857Z,24.79
2023-05-12T05:06:43.815Z,24.78
2023-05-12T05:07:43.786Z,24.79
2023-05-12T05:08:43.736Z,24.81
2023-05-12T05:09:43.716Z,24.79
2023-05-12T05:10:43.666Z,24.82
2023-05-12T05:11:43.657Z,24.78
2023-05-12T05:12:43.600Z,24.78
2023-05-12T05:13:43.583Z,24.82
2023-05-12T05:14:43.540Z,24.78
2023-05-12T05:15:43.590Z,24.78
2023-05-12T05:16:43.486Z,24.79
2023-05-12T05:17:43.557Z,24.81
2023-05-12T05:18:43.438Z,24.79
2023-05-12T05:19:54.891Z,24.78
2023-05-12T05:20:45.610Z,24.78
2023-05-12T05:21:44.339Z,24.75
2023-05-12T05:22:43.308Z,24.72
2023-05-12T05:23:43.292Z,24.71
2023-05-12T05:24:43.267Z,24.66
2023-05-12T05:25:43.242Z,24.65
2023-05-12T05:26:43.215Z,24.65
2023-05-12T05:27:43.198Z,24.65
2023-05-12T05:28:43.165Z,24.68
2023-05-12T05:29:43.140Z,24.71
2023-05-12T05:30:44.006Z,24.72
2023-05-12T05:31:43.098Z,24.82
2023-05-12T05:32:43.068Z,24.86
2023-05-12T05:33:44.005Z,24.93
2023-05-12T05:34:43.026Z,25.03
2023-05-12T05:35:42.913Z,25.09
2023-05-12T05:36:42.882Z,25.17
2023-05-12T05:37:42.853Z,25.26
2023-05-12T05:38:42.802Z,25.33
2023-05-12T05:39:42.764Z,25.41
2023-05-12T05:40:53.086Z,25.48
2023-05-12T05:41:43.726Z,25.55
2023-05-12T05:42:42.644Z,25.60
2023-05-12T05:43:42.588Z,25.65
2023-05-12T05:44:42.544Z,25.71
2023-05-12T05:45:42.524Z,25.72
2023-05-12T05:46:42.480Z,25.79
2023-05-12T05:47:42.517Z,25.85
2023-05-12T05:48:42.374Z,25.88
2023-05-12T05:49:42.319Z,25.93
2023-05-12T05:50:42.300Z,25.96
2023-05-12T05:51:42.306Z,26.00
2023-05-12T05:52:42.310Z,26.03
2023-05-12T05:53:42.307Z,26.05
2023-05-12T05:54:42.298Z,26.07
2023-05-12T05:55:42.315Z,26.09
2023-05-12T05:56:42.311Z,26.13
2023-05-12T05:57:42.310Z,26.16
2023-05-12T05:58:42.302Z,26.17
2023-05-12T05:59:42.302Z,26.22
2023-05-12T06:00:42.294Z,26.22
2023-05-12T06:01:42.328Z,26.26
2023-05-12T06:02:42.481Z,26.29
2023-05-12T06:03:42.363Z,26.32
2023-05-12T06:04:42.276Z,26.35
2023-05-12T06:05:42.342Z,26.36
2023-05-12T06:06:42.253Z,26.40
2023-05-12T06:07:42.303Z,26.40
2023-05-12T06:08:42.239Z,26.42
2023-05-12T06:09:42.229Z,26.44
2023-05-12T06:10:42.242Z,26.48
2023-05-12T06:11:42.196Z,26.50
2023-05-12T06:12:42.186Z,26.53
2023-05-12T06:13:42.184Z,26.51
2023-05-12T06:14:42.155Z,26.57
2023-05-12T06:15:42.134Z,26.58
2023-05-12T06:16:42.189Z,26.60
2023-05-12T06:17:42.150Z,26.61
2023-05-12T06:18:42.139Z,26.65
2023-05-12T06:19:42.084Z,26.64
2023-05-12T06:20:42.614Z,26.60
2023-05-12T06:21:42.065Z,26.60
2023-05-12T06:22:42.079Z,26.60
2023-05-12T06:23:42.044Z,26.55
2023-05-12T06:24:42.035Z,26.53
2023-05-12T06:25:42.080Z,26.46
2023-05-12T06:26:42.091Z,26.42
2023-05-12T06:27:42.012Z,26.36
2023-05-12T06:28:42.012Z,26.30
2023-05-12T06:29:42.002Z,26.26
2023-05-12T06:30:42.033Z,26.19
2023-05-12T06:31:42.029Z,26.15
2023-05-12T06:32:42.032Z,26.07
2023-05-12T06:33:41.960Z,26.03
2023-05-12T06:34:42.001Z,25.96
2023-05-12T06:35:41.943Z,25.92
2023-05-12T06:36:41.940Z,25.88
2023-05-12T06:37:41.913Z,25.85
2023-05-12T06:38:41.918Z,25.79
2023-05-12T06:39:41.848Z,25.75
2023-05-12T06:40:41.857Z,25.72
2023-05-12T06:41:41.793Z,25.71
2023-05-12T06:42:41.791Z,25.65
2023-05-12T06:43:41.741Z,25.62
2023-05-12T06:44:42.467Z,25.61
2023-05-12T06:45:41.708Z,25.61
2023-05-12T06:46:41.714Z,25.57
2023-05-12T06:47:41.728Z,25.58
2023-05-12T06:48:41.650Z,25.58
2023-05-12T06:49:41.615Z,25.58
2023-05-12T06:50:41.629Z,25.58
2023-05-12T06:51:41.574Z,25.57
2023-05-12T06:52:41.593Z,25.52
2023-05-12T06:53:41.548Z,25.57
2023-05-12T06:54:41.539Z,25.54
2023-05-12T06:55:41.502Z,25.62
2023-05-12T06:56:41.493Z,25.64
2023-05-12T06:57:41.478Z,25.68
2023-05-12T06:58:41.464Z,25.71
2023-05-12T06:59:41.426Z,25.77
2023-05-12T07:00:41.407Z,25.78
2023-05-12T07:01:41.441Z,25.85
2023-05-12T07:02:41.448Z,25.87
2023-05-12T07:03:41.484Z,25.89
2023-05-12T07:04:41.387Z,25.92
2023-05-12T07:05:41.461Z,25.96
2023-05-12T07:06:41.523Z,25.99
2023-05-12T07:07:41.364Z,26.00
2023-05-12T07:08:41.368Z,26.05
2023-05-12T07:09:41.363Z,26.06
2023-05-12T07:10:41.377Z,26.10
2023-05-12T07:11:41.342Z,26.12
2023-05-12T07:12:41.380Z,26.13
2023-05-12T07:13:41.338Z,26.19
2023-05-12T07:14:41.420Z,26.23
2023-05-12T07:15:41.364Z,26.22
2023-05-12T07:16:41.356Z,26.26
2023-05-12T07:17:41.390Z,26.29
2023-05-12T07:18:41.368Z,26.30
2023-05-12T07:19:41.327Z,26.33
2023-05-12T07:20:41.336Z,26.37
2023-05-12T07:21:41.317Z,26.40
2023-05-12T07:22:41.333Z,26.37
2023-05-12T07:23:41.313Z,26.37
2023-05-12T07:24:42.284Z,26.36
2023-05-12T07:25:41.225Z,26.42
2023-05-12T07:26:41.154Z,26.46
2023-05-12T07:27:41.089Z,26.47
2023-05-12T07:28:41.061Z,26.50
2023-05-12T07:29:40.987Z,26.54
2023-05-12T07:30:41.562Z,26.57
2023-05-12T07:31:40.904Z,26.60
2023-05-12T07:32:40.877Z,26.65
2023-05-12T07:33:40.776Z,26.67
2023-05-12T07:34:40.722Z,26.71
2023-05-12T07:35:40.665Z,26.73
2023-05-12T07:36:40.612Z,26.77
2023-05-12T07:37:40.561Z,26.80
2023-05-12T07:38:41.160Z,26.84
2023-05-12T07:39:40.471Z,26.81
2023-05-12T07:40:40.431Z,26.90
2023-05-12T07:41:40.394Z,26.95
2023-05-12T07:42:40.373Z,26.97
2023-05-12T07:43:40.358Z,26.98
2023-05-12T07:44:40.311Z,26.99
2023-05-12T07:45:40.289Z,27.01
2023-05-12T07:46:40.272Z,27.02
2023-05-12T07:47:40.223Z,27.01
2023-05-12T07:48:40.412Z,27.01
2023-05-12T07:49:40.145Z,27.01
2023-05-12T07:50:40.158Z,27.02
2023-05-12T07:51:40.104Z,27.08
2023-05-12T07:52:40.013Z,27.09
2023-05-12T07:53:40.000Z,27.06
2023-05-12T07:54:40.032Z,27.06
2023-05-12T07:55:39.954Z,27.06
2023-05-12T07:56:39.928Z,27.08
2023-05-12T07:57:39.861Z,27.12
2023-05-12T07:58:39.874Z,27.12
2023-05-12T07:59:39.733Z,27.13
2023-05-12T08:00:39.706Z,27.09
2023-05-12T08:01:39.690Z,27.11
2023-05-12T08:02:39.700Z,27.13
2023-05-12T08:03:39.697Z,27.11
2023-05-12T08:04:39.589Z,27.09
2023-05-12T08:05:39.544Z,27.12
2023-05-12T08:06:39.545Z,27.13
2023-05-12T08:08:39.534Z,27.15
2023-05-12T08:09:39.494Z,27.16
2023-05-12T08:10:39.501Z,27.16
2023-05-12T08:11:39.455Z,27.15
2023-05-12T08:12:39.469Z,27.12
2023-05-12T08:13:39.473Z,27.16
2023-05-12T08:14:39.443Z,27.15
2023-05-12T08:15:39.394Z,27.16
2023-05-12T08:16:39.404Z,27.18
2023-05-12T08:17:39.392Z,27.11
2023-05-12T08:18:39.344Z,27.12
2023-05-12T08:19:39.266Z,27.05
2023-05-12T08:20:39.234Z,27.03
2023-05-12T08:21:39.202Z,26.99
2023-05-12T08:22:39.168Z,26.98
2023-05-12T08:23:39.145Z,26.92
2023-05-12T08:24:39.662Z,26.90
2023-05-12T08:25:39.092Z,26.88
2023-05-12T08:26:39.100Z,26.85
2023-05-12T08:27:39.070Z,26.87
2023-05-12T08:28:39.672Z,26.80
2023-05-12T08:29:39.028Z,26.77
2023-05-12T08:30:38.999Z,26.73
2023-05-12T08:31:39.213Z,26.63
2023-05-12T08:32:39.023Z,26.64
2023-05-12T08:33:39.013Z,26.61
2023-05-12T08:34:38.982Z,26.58
2023-05-12T08:35:38.998Z,26.57
2023-05-12T08:36:39.095Z,26.58
2023-05-12T08:37:38.988Z,26.54
2023-05-12T08:38:39.088Z,26.51
2023-05-12T08:39:38.976Z,26.54
2023-05-12T08:40:38.927Z,26.54
2023-05-12T08:41:38.936Z,26.61
2023-05-12T08:42:39.089Z,26.65
2023-05-12T08:43:38.890Z,26.68
2023-05-12T08:44:38.872Z,26.71
2023-05-12T08:45:38.849Z,26.77
2023-05-12T08:46:38.866Z,26.80
2023-05-12T08:47:38.836Z,26.84
2023-05-12T08:48:38.742Z,26.88
2023-05-12T08:49:38.767Z,26.92
2023-05-12T08:50:38.675Z,26.94
2023-05-12T08:51:38.619Z,26.99
2023-05-12T08:52:38.570Z,26.98
2023-05-12T08:53:38.539Z,26.99
2023-05-12T08:54:48.736Z,26.98
2023-05-12T08:55:39.465Z,26.95
2023-05-12T08:57:39.765Z,26.90
2023-05-12T08:58:41.716Z,26.88
2023-05-12T08:59:38.224Z,26.84
2023-05-12T09:00:38.212Z,26.82
2023-05-12T09:01:38.167Z,26.81
2023-05-12T09:02:51.438Z,26.78
2023-05-12T09:03:39.358Z,26.74
2023-05-12T09:04:38.199Z,26.70
2023-05-12T09:05:38.144Z,26.67
2023-05-12T09:06:38.106Z,26.67
2023-05-12T09:07:38.261Z,26.64
2023-05-12T09:08:38.084Z,26.67
2023-05-12T09:09:38.672Z,26.64
2023-05-12T09:10:38.052Z,26.61
2023-05-12T09:11:38.052Z,26.58
2023-05-12T09:12:38.044Z,26.55
2023-05-12T09:13:38.024Z,26.55
2023-05-12T09:14:38.251Z,26.50
2023-05-12T09:15:38.017Z,26.50
2023-05-12T09:16:38.069Z,26.53
2023-05-12T09:17:38.006Z,26.53
2023-05-12T09:18:38.030Z,26.50
2023-05-12T09:19:37.969Z,26.51
2023-05-12T09:20:37.964Z,26.48
2023-05-12T09:21:37.965Z,26.50
2023-05-12T09:22:37.949Z,26.55
2023-05-12T09:23:38.677Z,26.57
2023-05-12T09:24:37.947Z,26.63
2023-05-12T09:25:37.908Z,26.67
2023-05-12T09:26:37.889Z,26.71
2023-05-12T09:27:37.888Z,26.77
2023-05-12T09:28:37.892Z,26.81
2023-05-12T09:30:37.894Z,26.90
2023-05-12T09:31:37.859Z,26.94
2023-05-12T09:32:37.879Z,26.98
2023-05-12T09:33:37.792Z,27.02
2023-05-12T09:34:37.770Z,27.05
2023-05-12T09:35:38.693Z,27.01
2023-05-12T09:36:37.753Z,27.08
2023-05-12T09:37:37.728Z,27.09
2023-05-12T09:38:37.713Z,27.13
2023-05-12T09:39:37.742Z,27.15
2023-05-12T09:40:38.193Z,27.15
2023-05-12T09:41:37.659Z,27.15
2023-05-12T09:42:37.686Z,27.13
2023-05-12T09:43:38.189Z,27.15
2023-05-12T09:44:37.591Z,27.12
2023-05-12T09:45:37.641Z,27.12
2023-05-12T09:46:37.537Z,27.15
2023-05-12T09:47:37.576Z,27.16
2023-05-12T09:48:37.493Z,27.13
2023-05-12T09:49:37.465Z,27.15
2023-05-12T09:50:46.496Z,27.16
2023-05-12T09:51:38.406Z,27.15
2023-05-12T09:52:37.381Z,27.18
2023-05-12T09:53:37.316Z,27.21
2023-05-12T09:54:37.284Z,27.22
2023-05-12T09:55:37.215Z,27.22
2023-05-12T09:56:37.261Z,27.26
2023-05-12T09:57:37.156Z,27.29
2023-05-12T09:58:37.119Z,27.30
2023-05-12T09:59:37.069Z,27.29
2023-05-12T10:00:58.555Z,27.29
2023-05-12T10:01:37.983Z,27.33
2023-05-12T10:02:36.998Z,27.33
2023-05-12T10:03:36.888Z,27.36
2023-05-12T10:04:36.929Z,27.33
2023-05-12T10:05:36.780Z,27.32
2023-05-12T10:06:36.753Z,27.33
2023-05-12T10:07:36.888Z,27.33
2023-05-12T10:08:36.651Z,27.36
2023-05-12T10:09:36.580Z,27.36
2023-05-12T10:10:36.570Z,27.36
2023-05-12T10:11:36.529Z,27.39
2023-05-12T10:12:36.538Z,27.39
2023-05-12T10:13:36.516Z,27.38
2023-05-12T10:14:36.515Z,27.36
2023-05-12T10:15:36.489Z,27.36
2023-05-12T10:16:36.510Z,27.36
2023-05-12T10:17:37.229Z,27.36
2023-05-12T10:18:37.348Z,27.35
2023-05-12T10:19:36.427Z,27.35
2023-05-12T10:20:36.379Z,27.30
2023-05-12T10:21:37.206Z,27.32
2023-05-12T10:22:36.332Z,27.32
2023-05-12T10:23:37.929Z,27.29
2023-05-12T10:24:36.279Z,27.30
2023-05-12T10:25:36.238Z,27.28
2023-05-12T10:26:36.216Z,27.25
2023-05-12T10:27:36.227Z,27.26
2023-05-12T10:28:36.153Z,27.24
2023-05-12T10:29:36.217Z,27.24
2023-05-12T10:30:36.120Z,27.21
2023-05-12T10:31:36.200Z,27.18
2023-05-12T10:32:36.110Z,27.16
2023-05-12T10:33:36.054Z,27.18
2023-05-12T10:34:36.040Z,27.12
2023-05-12T10:35:36.021Z,27.12
2023-05-12T10:36:35.984Z,27.13
2023-05-12T10:37:35.980Z,27.11
2023-05-12T10:38:35.951Z,27.08
2023-05-12T10:39:35.931Z,27.06
2023-05-12T10:40:35.954Z,27.08
2023-05-12T10:41:35.865Z,27.08
2023-05-12T10:42:35.841Z,27.06
2023-05-12T10:43:35.830Z,27.06
2023-05-12T10:44:35.827Z,27.03
2023-05-12T10:45:35.794Z,27.02
2023-05-12T10:46:35.767Z,27.02
2023-05-12T10:47:36.813Z,27.02
2023-05-12T10:48:36.225Z,26.98
2023-05-12T10:49:35.698Z,26.99
2023-05-12T10:50:35.670Z,27.01
2023-05-12T10:51:35.647Z,26.99
2023-05-12T10:52:35.620Z,26.98
2023-05-12T10:53:47.607Z,26.98
2023-05-12T10:54:36.572Z,26.98
2023-05-12T10:55:35.575Z,26.99
2023-05-12T10:56:35.682Z,26.98
2023-05-12T10:57:35.674Z,26.97
2023-05-12T10:58:35.814Z,26.95
2023-05-12T10:59:35.469Z,26.94
2023-05-12T11:00:35.551Z,26.94
2023-05-12T11:01:35.861Z,26.95
2023-05-12T11:02:37.013Z,26.92
2023-05-12T11:03:36.064Z,26.90
2023-05-12T11:04:35.268Z,26.87
2023-05-12T11:05:35.155Z,26.84
2023-05-12T11:06:35.206Z,26.84
2023-05-12T11:07:35.524Z,26.81
2023-05-12T11:08:35.828Z,26.80
2023-05-12T11:09:34.930Z,26.77
2023-05-12T11:10:35.685Z,26.74
2023-05-12T11:11:35.195Z,26.73
2023-05-12T11:12:34.718Z,26.74
2023-05-12T11:13:34.659Z,26.74
2023-05-12T11:14:34.616Z,26.74
2023-05-12T11:15:34.564Z,26.71
2023-05-12T11:16:34.567Z,26.74
2023-05-12T11:17:34.524Z,26.73
2023-05-12T11:18:34.469Z,26.70
2023-05-12T11:19:34.413Z,26.73
2023-05-12T11:20:35.234Z,26.70
2023-05-12T11:21:34.297Z,26.71
2023-05-12T11:22:34.446Z,26.73
2023-05-12T11:23:34.218Z,26.71
2023-05-12T11:24:34.214Z,26.73
2023-05-12T11:25:34.235Z,26.71
2023-05-12T11:26:34.163Z,26.70
2023-05-12T11:27:34.116Z,26.73
2023-05-12T11:28:34.141Z,26.70
2023-05-12T11:29:34.085Z,26.68
2023-05-12T11:30:34.093Z,26.68
2023-05-12T11:31:34.077Z,26.70
2023-05-12T11:32:34.082Z,26.70
2023-05-12T11:33:34.022Z,26.70
2023-05-12T11:34:34.039Z,26.65
2023-05-12T11:35:33.985Z,26.67
2023-05-12T11:36:33.990Z,26.65
2023-05-12T11:37:33.962Z,26.65
2023-05-12T11:38:33.959Z,26.64
2023-05-12T11:39:33.922Z,26.67
2023-05-12T11:40:33.897Z,26.67
2023-05-12T11:41:33.873Z,26.64
2023-05-12T11:42:33.849Z,26.64
2023-05-12T11:43:33.829Z,26.61
2023-05-12T11:44:33.807Z,26.63
2023-05-12T11:45:33.804Z,26.61
2023-05-12T11:46:33.774Z,26.61
2023-05-12T11:47:33.780Z,26.61
2023-05-12T11:48:33.732Z,26.61
2023-05-12T11:49:33.733Z,26.57
2023-05-12T11:50:33.713Z,26.58
2023-05-12T11:51:33.690Z,26.57
2023-05-12T11:52:33.667Z,26.57
2023-05-12T11:53:33.646Z,26.55
2023-05-12T11:54:33.639Z,26.57
2023-05-12T11:55:33.629Z,26.54
2023-05-12T11:56:33.614Z,26.57
2023-05-12T11:57:33.629Z,26.54
2023-05-12T11:58:35.554Z,26.53
2023-05-12T11:59:33.680Z,26.51
2023-05-12T12:00:33.566Z,26.54
2023-05-12T12:01:33.580Z,26.51
2023-05-12T12:02:33.682Z,26.51
2023-05-12T12:03:33.615Z,26.51
2023-05-12T12:04:33.727Z,26.48
2023-05-12T12:05:33.519Z,26.50
2023-05-12T12:06:33.496Z,26.48
2023-05-12T12:07:33.496Z,26.48
2023-05-12T12:08:33.469Z,26.47
2023-05-12T12:09:33.465Z,26.46
2023-05-12T12:10:33.454Z,26.47
2023-05-12T12:11:33.440Z,26.46
2023-05-12T12:12:33.414Z,26.48
2023-05-12T12:13:33.428Z,26.47
2023-05-12T12:14:33.428Z,26.46
2023-05-12T12:15:33.374Z,26.46
2023-05-12T12:16:33.430Z,26.46
2023-05-12T12:17:33.380Z,26.46
2023-05-12T12:18:33.379Z,26.46
2023-05-12T12:19:33.356Z,26.43
2023-05-12T12:20:33.325Z,26.46
2023-05-12T12:21:33.310Z,26.44
2023-05-12T12:22:33.309Z,26.44
2023-05-12T12:23:40.616Z,26.44
2023-05-12T12:24:34.259Z,26.40
2023-05-12T12:25:33.197Z,26.44
2023-05-12T12:26:33.178Z,26.39
2023-05-12T12:27:33.090Z,26.42
2023-05-12T12:28:33.041Z,26.42
2023-05-12T12:29:32.997Z,26.42
2023-05-12T12:30:32.946Z,26.39
2023-05-12T12:31:32.946Z,26.40
2023-05-12T12:32:32.861Z,26.40
2023-05-12T12:33:32.790Z,26.40
2023-05-12T12:34:32.757Z,26.40
2023-05-12T12:35:32.678Z,26.39
2023-05-12T12:36:32.673Z,26.37
2023-05-12T12:37:32.658Z,26.39
2023-05-12T12:38:32.685Z,26.39
2023-05-12T12:39:32.627Z,26.37
2023-05-12T12:40:32.652Z,26.36
2023-05-12T12:41:32.610Z,26.36
2023-05-12T12:42:32.767Z,26.40
2023-05-12T12:43:32.614Z,26.37
2023-05-12T12:44:32.603Z,26.39
2023-05-12T12:45:32.583Z,26.36
2023-05-12T12:46:32.629Z,26.36
2023-05-12T12:47:32.631Z,26.35
2023-05-12T12:48:32.559Z,26.35
2023-05-12T12:49:32.538Z,26.33
2023-05-12T12:50:32.553Z,26.37
2023-05-12T12:51:44.673Z,26.35
2023-05-12T12:52:33.488Z,26.35
2023-05-12T12:53:32.431Z,26.36
2023-05-12T12:54:32.375Z,26.35
2023-05-12T12:55:32.335Z,26.35
2023-05-12T12:56:32.279Z,26.33